首页
METAR-TAF:

METAR-TAF

机场 :

金斯顿, 安大略省, 加拿大

纬度: 44-13N, 经度: 076-36W, 海拔: 93米

当前天气观测

该预报发布于41分钟前的17:00 UTC
风速3节,风向北转东北,在北转西北之间变化
温度 -5°C
湿度 53%
气压 1028 hPa
能見度: 24.1公里
少量云层高于2000英尺
少量云层高于3600英尺
散云层高于24000英尺

METAR: CYGK 171700Z 02003KT 340V080 15SM FEW020 FEW036 SCT240 M05/M13 A3037 RMK CU1SC2CI1 CU TR SLP290

时间: 12:41 (17:41 UTC)

预报

该预报发布于5小时和3分钟前的12:38 UTC
预报有效从17日的 13点(UTC)到 18日的 01点(UTC)
风速6节,风向
能見度: 10公里
散云层高于4000英尺
从 17日的 1500点(UTC)
风速5节,风向北转东北
能見度: 10公里
少量云层高于4000英尺
从 17日的 2200点(UTC)
风速7节,风向东转东北
能見度: 10公里
散云层高于20000英尺

TAF: CYGK 171238Z 1713/1801 35006KT P6SM SCT040 FM171500 03005KT P6SM FEW040 FM172200 07007KT P6SM SCT200 RMK NXT FCST BY 172000Z

超过4000个机场的气象观测和天气预报(METAR&TAF报告)。

可查询的气象台以黄色和红色小点在地图上表示。

将鼠标移到小点上方,可查看气象台名称。

然后点击查看天气观测和预报。

如需切换地图:点击带黑十字的绿色按钮放大地图;点击带横线的绿色按钮缩小地图;或者点击绿色箭头查看邻近地区的地图。


METAR-TAF: